Time;durP1;ratioP1;P1;durP2;ratioP2;P2;SDS_P1;SDS_P2;PMS_P1;PMS_P2;Temp;Humidity;BMP_temperature;BMP_pressure;BME280_temperature;BME280_humidity;BME280_pressure;Samples;Min_cycle;Max_cycle;Signal;HPM_P1;HPM_P2
2022/09/14 00:00:12;;;;;;;0.90;0.80;;;27.10;72.20;;;;;;5115650;28;20482;-82
2022/09/14 00:02:39;;;;;;;0.90;0.80;;;27.10;72.10;;;;;;5115394;28;20447;-80
2022/09/14 00:05:07;;;;;;;0.70;0.67;;;27.10;72.10;;;;;;5115108;28;20454;-82
2022/09/14 00:07:33;;;;;;;1.03;0.70;;;27.10;72.10;;;;;;5115368;28;21004;-82
2022/09/14 00:10:01;;;;;;;1.63;0.80;;;27.10;72.10;;;;;;5115496;28;20435;-82
2022/09/14 00:12:28;;;;;;;0.90;0.73;;;27.10;72.10;;;;;;5115316;28;21009;-81
2022/09/14 00:14:55;;;;;;;0.80;0.73;;;27.10;72.00;;;;;;5115207;28;20442;-82
2022/09/14 00:17:22;;;;;;;1.00;0.90;;;27.10;72.00;;;;;;5114758;28;20443;-82
2022/09/14 00:19:49;;;;;;;0.80;0.80;;;27.10;72.00;;;;;;5115723;28;20435;-82
2022/09/14 00:22:15;;;;;;;0.90;0.80;;;27.10;72.00;;;;;;5115176;28;20871;-82
2022/09/14 00:24:42;;;;;;;0.87;0.80;;;27.10;72.00;;;;;;5115086;28;20443;-82
2022/09/14 00:27:10;;;;;;;0.87;0.70;;;27.10;71.90;;;;;;5114879;28;20489;-82
2022/09/14 00:29:37;;;;;;;1.10;0.80;;;27.10;71.90;;;;;;5115001;28;20859;-82
2022/09/14 00:32:04;;;;;;;0.80;0.70;;;27.10;71.90;;;;;;5114643;28;20439;-82
2022/09/14 00:34:31;;;;;;;0.90;0.80;;;27.10;71.90;;;;;;5114952;28;20450;-82
2022/09/14 00:36:58;;;;;;;0.80;0.80;;;27.10;71.90;;;;;;5115222;28;20436;-82
2022/09/14 00:39:27;;;;;;;0.80;0.80;;;27.00;71.80;;;;;;5114943;28;20546;-82
2022/09/14 00:41:54;;;;;;;0.80;0.70;;;27.10;71.90;;;;;;5114881;28;20431;-82
2022/09/14 00:45:07;;;;;;;0.80;0.80;;;27.10;71.90;;;;;;5115514;28;20438;-82
2022/09/14 00:47:35;;;;;;;2.60;0.83;;;27.10;71.80;;;;;;5114639;28;20478;-82
2022/09/14 00:50:04;;;;;;;1.67;0.70;;;27.00;71.80;;;;;;5114882;28;20435;-82
2022/09/14 00:52:34;;;;;;;0.73;0.63;;;27.00;71.80;;;;;;5114746;28;20433;-82
2022/09/14 00:55:04;;;;;;;0.90;0.73;;;27.10;71.80;;;;;;5114373;28;20505;-82
2022/09/14 00:57:36;;;;;;;0.83;0.83;;;27.10;71.80;;;;;;5114477;28;20522;-82
2022/09/14 01:00:08;;;;;;;0.90;0.70;;;27.10;71.80;;;;;;5114185;28;20968;-82
2022/09/14 01:02:34;;;;;;;0.80;0.70;;;27.10;71.80;;;;;;5114356;28;20492;-82
2022/09/14 01:05:02;;;;;;;0.80;0.70;;;27.10;71.70;;;;;;5114335;28;20530;-82
2022/09/14 01:07:42;;;;;;;0.80;0.80;;;27.10;71.70;;;;;;5114245;28;20754;-82
2022/09/14 01:10:18;;;;;;;0.90;0.70;;;27.10;71.70;;;;;;5114510;28;20450;-82
2022/09/14 01:12:55;;;;;;;0.90;0.80;;;27.00;71.60;;;;;;5114295;28;21218;-82
2022/09/14 01:15:30;;;;;;;0.80;0.70;;;27.10;71.70;;;;;;5113557;28;20950;-82
2022/09/14 01:18:02;;;;;;;0.80;0.60;;;27.00;71.60;;;;;;5113521;28;20443;-82
2022/09/14 01:20:35;;;;;;;0.70;0.60;;;27.00;71.60;;;;;;5114176;28;20442;-82
2022/09/14 01:23:09;;;;;;;1.00;0.70;;;27.00;71.60;;;;;;5114155;28;20435;-96
2022/09/14 01:25:58;;;;;;;0.80;0.70;;;27.00;71.60;;;;;;5113546;28;20442;-82
2022/09/14 01:28:31;;;;;;;1.40;0.90;;;27.00;71.60;;;;;;5113783;28;20489;-82
2022/09/14 01:31:03;;;;;;;0.90;0.67;;;27.00;72.40;;;;;;5113918;28;20438;-81
2022/09/14 01:33:35;;;;;;;0.80;0.70;;;27.00;71.60;;;;;;5113994;28;20439;-81
2022/09/14 01:36:06;;;;;;;0.80;0.70;;;27.00;71.60;;;;;;5113869;28;20439;-81
2022/09/14 01:38:37;;;;;;;0.87;0.70;;;27.00;71.70;;;;;;5113640;28;20459;-81
2022/09/14 01:41:09;;;;;;;0.70;0.60;;;27.00;71.60;;;;;;5114139;28;20431;-81
2022/09/14 01:43:40;;;;;;;1.07;0.70;;;27.00;71.60;;;;;;5114036;28;20785;-81
2022/09/14 01:46:11;;;;;;;0.80;0.77;;;27.00;71.60;;;;;;5114042;28;20826;-81
2022/09/14 01:48:43;;;;;;;0.73;0.70;;;27.00;71.60;;;;;;5113547;28;20482;-81
2022/09/14 01:51:13;;;;;;;0.80;0.70;;;27.00;71.60;;;;;;5113508;28;20823;-81
2022/09/14 01:53:44;;;;;;;0.80;0.70;;;27.00;71.60;;;;;;5113999;28;20439;-80
2022/09/14 01:56:19;;;;;;;0.80;0.60;;;27.00;71.60;;;;;;5113683;28;20485;-81
2022/09/14 01:58:51;;;;;;;0.80;0.77;;;27.00;71.50;;;;;;5113180;28;20543;-80
2022/09/14 02:01:22;;;;;;;0.80;0.80;;;27.00;71.70;;;;;;5113761;28;20453;-81
2022/09/14 02:03:54;;;;;;;0.80;0.70;;;27.00;71.70;;;;;;5113511;28;20443;-81
2022/09/14 02:06:25;;;;;;;0.93;0.83;;;27.00;71.70;;;;;;5113620;28;20445;-81
2022/09/14 02:08:53;;;;;;;1.80;0.70;;;27.00;72.60;;;;;;5113355;28;20973;-81
2022/09/14 02:11:20;;;;;;;0.80;0.70;;;27.00;71.70;;;;;;5113736;28;20439;-81
2022/09/14 02:13:48;;;;;;;0.83;0.73;;;27.00;71.60;;;;;;5113344;28;20439;-81
2022/09/14 02:16:15;;;;;;;0.80;0.70;;;27.00;71.70;;;;;;5113235;28;20435;-81
2022/09/14 02:18:42;;;;;;;0.87;0.70;;;27.00;71.70;;;;;;5113631;28;20441;-81
2022/09/14 02:21:12;;;;;;;0.80;0.70;;;27.00;71.70;;;;;;5113309;28;20521;-81
2022/09/14 02:23:39;;;;;;;0.90;0.80;;;27.00;71.70;;;;;;5113505;28;20797;-81
2022/09/14 02:26:06;;;;;;;1.10;0.80;;;27.00;71.70;;;;;;5113244;28;20439;-81
2022/09/14 02:28:33;;;;;;;0.77;0.67;;;27.00;71.60;;;;;;5113211;28;20474;-81
2022/09/14 02:31:12;;;;;;;0.80;0.70;;;27.00;72.40;;;;;;5113476;28;20447;-81
2022/09/14 02:33:45;;;;;;;0.70;0.60;;;27.00;72.40;;;;;;5113451;28;20526;-96
2022/09/14 02:36:18;;;;;;;1.00;0.80;;;27.00;71.60;;;;;;5113189;28;20438;-80
2022/09/14 02:38:52;;;;;;;0.80;0.70;;;27.00;71.60;;;;;;5113149;28;20965;-81
2022/09/14 02:41:26;;;;;;;0.90;0.70;;;27.00;71.50;;;;;;5115729;28;20446;-81
2022/09/14 02:44:00;;;;;;;1.10;0.80;;;27.00;71.50;;;;;;5117205;28;20447;-93
2022/09/14 02:46:36;;;;;;;0.80;0.70;;;27.00;71.50;;;;;;5116594;28;20976;-81
2022/09/14 02:49:11;;;;;;;0.80;0.80;;;27.00;71.40;;;;;;5116603;28;20478;-81
2022/09/14 02:51:47;;;;;;;1.17;0.73;;;27.00;71.40;;;;;;5116935;28;20536;-80
2022/09/14 02:54:18;;;;;;;1.53;0.60;;;27.00;72.20;;;;;;5098845;28;20434;-82
2022/09/14 02:56:45;;;;;;;0.80;0.70;;;27.00;71.40;;;;;;5116503;28;20471;-81
2022/09/14 02:59:12;;;;;;;0.70;0.60;;;27.00;71.40;;;;;;5116814;28;20453;-81
2022/09/14 03:01:40;;;;;;;0.90;0.70;;;27.00;71.30;;;;;;5116664;28;20435;-81
2022/09/14 03:04:07;;;;;;;0.90;0.60;;;26.90;71.30;;;;;;5116493;28;20439;-81
2022/09/14 03:06:34;;;;;;;0.80;0.67;;;27.00;71.30;;;;;;5116795;28;20533;-81
2022/09/14 03:09:01;;;;;;;1.10;0.70;;;27.00;71.30;;;;;;5116405;28;20475;-81
2022/09/14 03:11:28;;;;;;;0.80;0.70;;;27.00;71.20;;;;;;5116561;28;20431;-81
2022/09/14 03:13:55;;;;;;;2.20;0.90;;;27.00;71.20;;;;;;5116844;28;20448;-81
2022/09/14 03:16:22;;;;;;;0.80;0.77;;;27.00;71.20;;;;;;5116344;28;20808;-81
2022/09/14 03:18:50;;;;;;;0.80;0.67;;;27.00;71.20;;;;;;5116411;28;20450;-81
2022/09/14 03:21:18;;;;;;;0.80;0.60;;;27.00;71.10;;;;;;5116387;28;20537;-83
2022/09/14 03:23:46;;;;;;;0.80;0.60;;;27.00;71.10;;;;;;5116595;28;20485;-80
2022/09/14 03:26:16;;;;;;;0.93;0.83;;;27.00;71.10;;;;;;5116229;28;20439;-81
2022/09/14 03:28:43;;;;;;;1.00;0.90;;;27.00;71.20;;;;;;5116041;28;20977;-81
2022/09/14 03:31:12;;;;;;;0.80;0.70;;;27.00;71.20;;;;;;5116190;28;20541;-81
2022/09/14 03:33:39;;;;;;;1.10;0.60;;;26.90;71.20;;;;;;5116201;28;20435;-81
2022/09/14 03:36:12;;;;;;;1.00;0.80;;;26.90;71.20;;;;;;5115649;28;20449;-81
2022/09/14 03:38:42;;;;;;;0.77;0.67;;;27.00;71.20;;;;;;5115991;28;20463;-81
2022/09/14 03:41:09;;;;;;;0.80;0.67;;;27.00;71.30;;;;;;5116171;28;20439;-81
2022/09/14 03:43:36;;;;;;;0.80;0.70;;;27.00;71.40;;;;;;5116156;28;20435;-81
2022/09/14 03:46:06;;;;;;;0.80;0.70;;;26.90;71.30;;;;;;5116097;28;20450;-84
2022/09/14 03:48:32;;;;;;;0.80;0.70;;;27.00;71.40;;;;;;5115839;28;20535;-88
2022/09/14 03:51:00;;;;;;;0.80;0.70;;;26.90;71.40;;;;;;5115700;28;20439;-80
2022/09/14 03:53:29;;;;;;;1.00;0.70;;;26.90;71.40;;;;;;5115028;28;20439;-81
2022/09/14 03:55:56;;;;;;;0.80;0.70;;;26.90;71.50;;;;;;5115554;28;20557;-81
2022/09/14 03:58:23;;;;;;;0.90;0.80;;;26.90;71.50;;;;;;5115762;28;20443;-81
2022/09/14 04:00:50;;;;;;;0.93;0.80;;;26.90;71.50;;;;;;5115508;28;20518;-81
2022/09/14 04:03:18;;;;;;;0.80;0.70;;;26.90;71.60;;;;;;5115533;28;20457;-81
2022/09/14 04:05:54;;;;;;;0.80;0.63;;;26.90;71.60;;;;;;5115615;28;20526;-96
2022/09/14 04:08:21;;;;;;;0.90;0.70;;;27.00;71.60;;;;;;5115737;28;21045;-80
2022/09/14 04:10:49;;;;;;;0.70;0.60;;;26.90;71.70;;;;;;5115455;28;20431;-81
2022/09/14 04:13:16;;;;;;;1.87;1.13;;;26.90;71.70;;;;;;5115760;28;20444;-81
2022/09/14 04:15:43;;;;;;;0.73;0.60;;;26.90;71.80;;;;;;5115658;28;20459;-81
2022/09/14 04:18:11;;;;;;;0.80;0.70;;;26.90;71.80;;;;;;5115887;28;20443;-81
2022/09/14 04:20:37;;;;;;;0.80;0.70;;;26.90;71.90;;;;;;5115162;28;20443;-81
2022/09/14 04:23:05;;;;;;;0.70;0.60;;;26.90;71.90;;;;;;5115357;28;20468;-81
2022/09/14 04:25:32;;;;;;;0.90;0.80;;;26.90;71.90;;;;;;5115400;28;20434;-81
2022/09/14 04:28:00;;;;;;;1.00;0.77;;;26.90;71.90;;;;;;5114746;28;20478;-81
2022/09/14 04:30:27;;;;;;;0.80;0.73;;;26.90;71.90;;;;;;5115050;28;20439;-80
2022/09/14 04:32:54;;;;;;;0.80;0.70;;;26.90;72.00;;;;;;5115187;28;20514;-81
2022/09/14 04:35:22;;;;;;;1.57;0.70;;;26.90;71.90;;;;;;5115178;28;20439;-81
2022/09/14 04:37:48;;;;;;;1.13;0.80;;;26.90;71.90;;;;;;5114612;28;20459;-81
2022/09/14 04:40:15;;;;;;;0.80;0.70;;;26.90;72.00;;;;;;5114298;28;20451;-81
2022/09/14 04:42:42;;;;;;;0.80;0.60;;;26.90;72.00;;;;;;5114932;28;20442;-95
2022/09/14 04:45:11;;;;;;;0.90;0.80;;;26.90;72.00;;;;;;5114896;28;20442;-80
2022/09/14 04:47:38;;;;;;;0.70;0.60;;;26.90;72.00;;;;;;5114283;28;20529;-81
2022/09/14 04:50:06;;;;;;;1.40;0.80;;;26.90;72.00;;;;;;5114763;28;20445;-81
2022/09/14 04:52:32;;;;;;;0.70;0.60;;;26.90;72.00;;;;;;5115131;28;20913;-81
2022/09/14 04:54:59;;;;;;;0.70;0.63;;;26.90;72.10;;;;;;5114448;28;20467;-80
2022/09/14 04:57:26;;;;;;;1.00;0.70;;;26.90;72.20;;;;;;5114167;28;20443;-79
2022/09/14 04:59:53;;;;;;;0.90;0.70;;;26.90;72.10;;;;;;5114213;28;20522;-80
2022/09/14 05:02:21;;;;;;;0.90;0.70;;;26.90;72.10;;;;;;5114378;28;20453;-80
2022/09/14 05:04:48;;;;;;;0.90;0.80;;;26.90;72.10;;;;;;5114330;28;20533;-81
2022/09/14 05:07:15;;;;;;;0.80;0.70;;;26.90;72.10;;;;;;5114292;28;20945;-80
2022/09/14 05:09:42;;;;;;;0.87;0.77;;;26.90;72.10;;;;;;5114121;28;20483;-80
2022/09/14 05:12:09;;;;;;;1.93;0.80;;;26.90;72.10;;;;;;5114801;28;20447;-80
2022/09/14 05:14:35;;;;;;;0.80;0.70;;;26.90;72.20;;;;;;5114274;28;20461;-80
2022/09/14 05:17:03;;;;;;;0.90;0.70;;;26.90;72.20;;;;;;5114237;28;20439;-82
2022/09/14 05:19:31;;;;;;;0.80;0.77;;;26.90;72.20;;;;;;5117400;28;20937;-96
2022/09/14 05:25:26;;;;;;;0.80;0.70;;;26.90;72.10;;;;;;5117606;28;20940;-96
2022/09/14 05:27:53;;;;;;;0.90;0.70;;;26.80;72.30;;;;;;5117193;28;22394;-96
2022/09/14 05:30:20;;;;;;;0.80;0.70;;;26.80;72.30;;;;;;5114584;28;20861;-82
2022/09/14 05:32:46;;;;;;;0.77;0.70;;;26.80;72.30;;;;;;5114208;28;20547;-86
2022/09/14 05:35:15;;;;;;;0.80;0.70;;;26.90;72.30;;;;;;5113927;28;20437;-91
2022/09/14 05:37:41;;;;;;;0.80;0.70;;;26.90;72.30;;;;;;5113737;28;20534;-95
2022/09/14 05:40:09;;;;;;;0.80;0.70;;;26.80;73.10;;;;;;5115520;28;20439;-92
2022/09/14 05:42:36;;;;;;;0.80;0.70;;;26.80;72.30;;;;;;5116059;28;20439;-96
2022/09/14 05:45:04;;;;;;;0.80;0.70;;;26.80;72.20;;;;;;5116215;28;20469;-83
2022/09/14 05:47:31;;;;;;;0.80;0.70;;;26.80;72.20;;;;;;5107187;28;20444;-82
2022/09/14 05:49:58;;;;;;;0.87;0.70;;;26.80;72.30;;;;;;5115561;28;20485;-84
2022/09/14 05:52:28;;;;;;;0.70;0.60;;;26.80;72.30;;;;;;5114532;28;20439;-83
2022/09/14 05:54:55;;;;;;;0.70;0.70;;;26.90;72.30;;;;;;5113351;28;20469;-82
2022/09/14 05:57:22;;;;;;;0.90;0.70;;;26.90;72.30;;;;;;5113867;28;20438;-83
2022/09/14 05:59:49;;;;;;;0.80;0.80;;;26.90;72.30;;;;;;5113507;28;20427;-83
2022/09/14 06:02:15;;;;;;;0.80;0.70;;;26.90;72.30;;;;;;5113526;28;20435;-85
2022/09/14 06:04:42;;;;;;;0.80;0.70;;;26.90;72.30;;;;;;5113971;28;20929;-88
2022/09/14 06:07:09;;;;;;;1.00;0.70;;;26.90;72.40;;;;;;5113847;28;20458;-83
2022/09/14 06:09:37;;;;;;;1.00;0.80;;;26.90;72.50;;;;;;5113704;28;20478;-87
2022/09/14 06:12:04;;;;;;;1.20;0.90;;;26.90;72.60;;;;;;5113726;28;20802;-81
2022/09/14 06:14:31;;;;;;;0.87;0.70;;;26.90;72.70;;;;;;5117692;28;20503;-91
2022/09/14 06:16:58;;;;;;;0.83;0.73;;;26.90;72.70;;;;;;5119075;28;20541;-80
2022/09/14 06:19:25;;;;;;;1.20;0.80;;;26.90;72.70;;;;;;5117412;28;20922;-87
2022/09/14 06:21:51;;;;;;;1.53;0.80;;;26.90;72.70;;;;;;5117753;28;20447;-82
2022/09/14 06:24:18;;;;;;;1.23;0.70;;;27.10;72.90;;;;;;5117592;28;20434;-81
2022/09/14 06:26:46;;;;;;;0.90;0.80;;;26.90;72.80;;;;;;5117454;28;20435;-83
2022/09/14 06:29:13;;;;;;;0.80;0.70;;;26.90;72.80;;;;;;5117489;28;20483;-82
2022/09/14 06:31:40;;;;;;;1.30;0.73;;;27.00;72.90;;;;;;5117467;28;20537;-93
2022/09/14 06:34:07;;;;;;;1.00;0.90;;;26.90;72.90;;;;;;5117641;28;20435;-82
2022/09/14 06:36:33;;;;;;;1.20;1.10;;;26.90;72.90;;;;;;5117364;28;20439;-82
2022/09/14 06:39:01;;;;;;;0.93;0.83;;;26.90;72.90;;;;;;5117422;28;20454;-93
2022/09/14 06:41:31;;;;;;;2.60;0.90;;;27.00;73.00;;;;;;5115992;27;20443;-84
2022/09/14 06:44:01;;;;;;;2.80;0.97;;;27.00;73.00;;;;;;5098566;28;20439;-93
2022/09/14 06:46:30;;;;;;;1.00;0.90;;;26.90;72.80;;;;;;5096943;28;20440;-93
2022/09/14 07:20:47;;;;;;;0.90;0.80;;;26.80;73.00;;;;;;5054469;28;20461;-79
2022/09/14 07:23:14;;;;;;;0.90;0.80;;;26.70;73.10;;;;;;5067941;28;20524;-79
2022/09/14 07:25:41;;;;;;;1.00;0.87;;;26.70;73.90;;;;;;5075534;28;20444;-81
2022/09/14 07:28:08;;;;;;;2.23;1.00;;;26.80;73.10;;;;;;5075634;28;20814;-86
2022/09/14 07:30:36;;;;;;;1.53;1.07;;;26.70;74.10;;;;;;5076151;28;20436;-80
2022/09/14 07:33:04;;;;;;;3.03;0.70;;;26.70;74.20;;;;;;5075471;28;20437;-95
2022/09/14 07:35:31;;;;;;;1.30;0.93;;;26.70;73.30;;;;;;5075433;28;20444;-80
2022/09/14 07:38:00;;;;;;;4.20;1.00;;;26.80;73.30;;;;;;5075441;28;20888;-80
2022/09/14 07:40:26;;;;;;;1.97;0.80;;;26.70;73.70;;;;;;5074565;28;20536;-80
2022/09/14 07:42:54;;;;;;;0.93;0.83;;;26.70;73.50;;;;;;5079326;28;20442;-95
2022/09/14 07:45:21;;;;;;;1.60;1.00;;;26.80;73.50;;;;;;5098700;28;20432;-94
2022/09/14 07:47:49;;;;;;;1.47;1.23;;;26.80;73.70;;;;;;5097735;28;20436;-94
2022/09/14 07:50:16;;;;;;;1.00;0.90;;;26.80;73.70;;;;;;5098369;28;20491;-94
2022/09/14 07:52:43;;;;;;;0.83;0.83;;;26.80;73.60;;;;;;5098125;28;20922;-94
2022/09/14 07:55:12;;;;;;;4.40;0.83;;;26.80;73.60;;;;;;5098075;28;20442;-96
2022/09/14 07:57:39;;;;;;;1.47;0.80;;;26.80;73.60;;;;;;5097819;28;20939;-94
2022/09/14 08:00:09;;;;;;;1.00;0.80;;;26.80;73.60;;;;;;5098332;28;20462;-95
2022/09/14 08:02:36;;;;;;;2.30;0.90;;;26.80;73.60;;;;;;5097188;28;20919;-83
2022/09/14 08:05:03;;;;;;;1.03;0.93;;;26.80;73.60;;;;;;5094876;28;21300;-80
2022/09/14 08:07:30;;;;;;;1.00;0.80;;;26.80;73.60;;;;;;5094816;28;20460;-79
2022/09/14 08:09:57;;;;;;;0.90;0.73;;;26.80;73.60;;;;;;5094994;28;20898;-79
2022/09/14 08:12:26;;;;;;;0.90;0.80;;;26.80;73.70;;;;;;5094957;28;20432;-79
2022/09/14 08:14:53;;;;;;;1.03;0.87;;;26.80;73.70;;;;;;5095850;28;20456;-79
2022/09/14 08:17:22;;;;;;;0.97;0.90;;;26.80;73.80;;;;;;5095821;28;20442;-79
2022/09/14 08:19:50;;;;;;;1.10;0.90;;;26.80;73.90;;;;;;5108755;28;20540;-79
2022/09/14 08:22:18;;;;;;;1.00;0.90;;;26.80;74.00;;;;;;5115708;28;20443;-79
2022/09/14 08:24:45;;;;;;;1.20;1.00;;;26.80;74.20;;;;;;5116190;28;20796;-79
2022/09/14 08:27:12;;;;;;;1.20;0.90;;;26.80;74.20;;;;;;5107884;28;21006;-79
2022/09/14 08:29:40;;;;;;;4.43;1.00;;;26.80;74.20;;;;;;5115975;28;20482;-79
2022/09/14 08:32:07;;;;;;;1.00;0.80;;;26.80;74.20;;;;;;5115667;28;20446;-79
2022/09/14 08:34:34;;;;;;;1.20;0.90;;;26.80;74.20;;;;;;5116209;28;20447;-80
2022/09/14 08:37:02;;;;;;;1.00;0.90;;;26.80;74.20;;;;;;5115831;28;20862;-84
2022/09/14 08:39:29;;;;;;;1.10;0.73;;;26.80;74.20;;;;;;5115403;28;20496;-84
2022/09/14 08:42:00;;;;;;;4.13;0.93;;;26.80;74.20;;;;;;5115911;28;20447;-82
2022/09/14 08:44:31;;;;;;;2.17;1.00;;;26.80;74.50;;;;;;5115134;28;20458;-82
2022/09/14 08:47:04;;;;;;;1.90;1.00;;;26.80;74.50;;;;;;5115817;28;20451;-82
2022/09/14 08:49:41;;;;;;;3.70;0.80;;;26.80;74.30;;;;;;5115962;28;20483;-79
2022/09/14 08:52:15;;;;;;;2.03;0.70;;;26.90;74.30;;;;;;5115183;28;20438;-81
2022/09/14 08:54:43;;;;;;;1.20;1.00;;;26.80;74.20;;;;;;5115301;28;20866;-81
2022/09/14 08:57:17;;;;;;;0.80;0.60;;;26.90;74.40;;;;;;5114766;28;20465;-81
2022/09/14 08:59:52;;;;;;;1.10;0.70;;;26.90;74.30;;;;;;5114762;28;20534;-81
2022/09/14 09:02:35;;;;;;;1.00;0.90;;;26.90;74.20;;;;;;5114361;28;20450;-84
2022/09/14 09:05:20;;;;;;;1.00;0.90;;;26.90;74.20;;;;;;5114653;28;20443;-94
2022/09/14 09:07:55;;;;;;;0.97;0.87;;;26.90;74.20;;;;;;5114478;28;20462;-83
2022/09/14 09:10:23;;;;;;;2.70;0.77;;;26.90;74.10;;;;;;5114560;28;20486;-90
2022/09/14 09:12:54;;;;;;;0.90;0.80;;;26.80;74.00;;;;;;5114359;28;20960;-83
2022/09/14 09:15:24;;;;;;;2.13;0.93;;;26.80;73.90;;;;;;5114564;28;20435;-90
2022/09/14 09:17:57;;;;;;;2.50;1.07;;;26.80;73.90;;;;;;5114256;28;20431;-83
2022/09/14 09:20:28;;;;;;;0.90;0.80;;;26.80;73.90;;;;;;5113996;28;21029;-85
2022/09/14 09:23:06;;;;;;;1.30;0.80;;;26.90;74.00;;;;;;5113710;28;20435;-81
2022/09/14 09:25:50;;;;;;;1.10;0.80;;;26.90;73.90;;;;;;5114179;28;20534;-81
2022/09/14 09:28:17;;;;;;;3.63;1.00;;;26.90;73.90;;;;;;5114140;28;20439;-81
2022/09/14 09:30:45;;;;;;;1.20;0.87;;;26.80;73.80;;;;;;5104522;28;20848;-89
2022/09/14 09:33:17;;;;;;;1.37;1.07;;;26.90;74.70;;;;;;5112199;28;21016;-85
2022/09/14 09:35:44;;;;;;;0.90;0.70;;;26.90;73.80;;;;;;5113705;28;20567;-82
2022/09/14 09:38:15;;;;;;;1.77;0.70;;;26.90;73.80;;;;;;5113760;28;20471;-82
2022/09/14 09:40:46;;;;;;;1.00;0.83;;;26.80;73.60;;;;;;5114085;28;20439;-83
2022/09/14 09:43:17;;;;;;;1.47;0.80;;;26.90;73.80;;;;;;5113889;28;20812;-83
2022/09/14 09:45:53;;;;;;;0.90;0.77;;;26.80;73.70;;;;;;5113902;28;20538;-84
2022/09/14 09:48:24;;;;;;;1.20;0.90;;;26.90;73.70;;;;;;5114309;28;20435;-85
2022/09/14 09:51:04;;;;;;;0.80;0.70;;;26.80;73.60;;;;;;5111325;28;20471;-81
2022/09/14 09:53:34;;;;;;;0.90;0.77;;;26.90;73.70;;;;;;5109203;28;21011;-81
2022/09/14 09:56:02;;;;;;;1.13;0.97;;;26.80;73.60;;;;;;5113681;28;20435;-82
2022/09/14 09:58:31;;;;;;;0.90;0.70;;;26.80;73.60;;;;;;5113597;28;20488;-82
2022/09/14 10:01:00;;;;;;;0.90;0.70;;;26.80;73.50;;;;;;5113580;28;20439;-82
2022/09/14 10:03:32;;;;;;;2.43;1.00;;;26.80;73.50;;;;;;5113429;28;20443;-82
2022/09/14 10:06:04;;;;;;;1.60;0.80;;;26.90;73.60;;;;;;5113508;28;20442;-83
2022/09/14 10:08:33;;;;;;;0.80;0.77;;;26.90;73.70;;;;;;5113336;28;20465;-83
2022/09/14 10:11:02;;;;;;;1.17;1.07;;;26.80;73.60;;;;;;5113226;28;20590;-82
2022/09/14 10:13:31;;;;;;;1.00;0.80;;;26.80;73.50;;;;;;5113551;28;20549;-82
2022/09/14 10:16:17;;;;;;;1.23;0.70;;;26.80;73.50;;;;;;5106343;28;20974;-87
2022/09/14 10:18:48;;;;;;;1.03;0.90;;;26.90;73.50;;;;;;5092298;28;20481;-84
2022/09/14 10:21:16;;;;;;;4.73;0.90;;;26.80;73.50;;;;;;5113130;28;20961;-85
2022/09/14 10:23:44;;;;;;;0.80;0.80;;;26.80;73.40;;;;;;5102461;28;20435;-87
2022/09/14 10:26:34;;;;;;;1.90;0.80;;;26.80;73.40;;;;;;5112308;28;20791;-86
2022/09/14 10:29:30;;;;;;;1.00;0.73;;;26.80;73.30;;;;;;5111186;28;20442;-85
2022/09/14 10:32:03;;;;;;;1.27;1.10;;;26.80;73.30;;;;;;5114204;28;20464;-85
2022/09/14 10:34:32;;;;;;;0.90;0.77;;;26.80;73.50;;;;;;5114566;28;20439;-87
2022/09/14 10:37:10;;;;;;;0.80;0.77;;;26.80;73.40;;;;;;5114280;28;20459;-87
2022/09/14 10:39:45;;;;;;;1.00;0.70;;;26.80;73.30;;;;;;5114258;28;20439;-86
2022/09/14 10:42:21;;;;;;;1.87;0.80;;;26.80;73.30;;;;;;5114098;28;20465;-80
2022/09/14 10:45:01;;;;;;;2.00;0.90;;;26.80;73.30;;;;;;5110577;28;20446;-80
2022/09/14 10:47:47;;;;;;;1.20;1.10;;;26.80;73.20;;;;;;5092791;28;21018;-87
2022/09/14 10:50:28;;;;;;;1.20;0.97;;;26.80;73.20;;;;;;5108855;28;20475;-80
2022/09/14 10:53:06;;;;;;;1.00;0.83;;;26.80;73.20;;;;;;5103712;28;20463;-82
2022/09/14 10:55:42;;;;;;;0.80;0.60;;;26.80;73.30;;;;;;5112998;28;20479;-83
2022/09/14 10:58:24;;;;;;;0.90;0.70;;;26.80;73.10;;;;;;5112717;28;20431;-81
2022/09/14 11:01:02;;;;;;;1.07;0.73;;;26.80;73.10;;;;;;5109631;28;20480;-83
2022/09/14 11:03:42;;;;;;;0.80;0.80;;;26.80;73.10;;;;;;5109649;28;20437;-84
2022/09/14 11:06:22;;;;;;;0.87;0.67;;;26.80;73.10;;;;;;5116808;28;20446;-85
2022/09/14 11:08:54;;;;;;;0.80;0.80;;;26.80;73.10;;;;;;5116538;28;20441;-91
2022/09/14 11:11:33;;;;;;;0.90;0.70;;;26.80;73.20;;;;;;5111962;28;20483;-82
2022/09/14 11:14:14;;;;;;;1.87;0.70;;;26.80;73.20;;;;;;5115597;28;20446;-82
2022/09/14 11:16:59;;;;;;;1.73;0.80;;;26.80;73.30;;;;;;5115386;28;20445;-82
2022/09/14 11:19:38;;;;;;;1.90;0.80;;;26.70;73.20;;;;;;5105217;28;20998;-83
2022/09/14 11:22:14;;;;;;;3.33;0.90;;;26.70;73.30;;;;;;5095413;28;20444;-83
2022/09/14 11:24:47;;;;;;;0.87;0.80;;;26.70;73.50;;;;;;5094626;28;20432;-84
2022/09/14 11:27:23;;;;;;;1.93;1.10;;;26.70;73.30;;;;;;5095740;28;20578;-83
2022/09/14 11:29:53;;;;;;;0.83;0.60;;;26.60;73.30;;;;;;5084660;28;20474;-81
2022/09/14 11:32:25;;;;;;;1.83;1.00;;;26.60;73.30;;;;;;5095618;28;20945;-81
2022/09/14 11:34:56;;;;;;;0.80;0.70;;;26.60;73.20;;;;;;5095772;28;20451;-81
2022/09/14 11:37:32;;;;;;;1.50;1.00;;;26.60;73.00;;;;;;5095721;28;20788;-84
2022/09/14 11:40:08;;;;;;;1.60;0.87;;;26.50;72.80;;;;;;5095676;28;20440;-81
2022/09/14 11:42:40;;;;;;;1.20;0.90;;;26.60;73.00;;;;;;5095716;28;20456;-81
2022/09/14 11:45:14;;;;;;;1.53;0.90;;;26.50;72.90;;;;;;5095750;28;20538;-91
2022/09/14 11:47:46;;;;;;;1.03;0.90;;;26.50;73.80;;;;;;5095699;28;20448;-81
2022/09/14 11:50:19;;;;;;;1.07;0.87;;;26.50;72.90;;;;;;5095265;28;20525;-81
2022/09/14 11:52:54;;;;;;;1.57;1.10;;;26.50;72.90;;;;;;5095761;28;20432;-82
2022/09/14 11:55:22;;;;;;;1.20;0.90;;;26.50;73.00;;;;;;5095115;28;20436;-81
2022/09/14 11:57:49;;;;;;;1.87;1.00;;;26.50;73.00;;;;;;5095372;28;20530;-81
2022/09/14 12:00:44;;;;;;;5.47;0.93;;;26.50;73.10;;;;;;5095237;28;20440;-82
2022/09/14 12:03:17;;;;;;;6.03;0.90;;;26.60;73.10;;;;;;5095168;28;20444;-82
2022/09/14 12:05:45;;;;;;;1.77;1.07;;;26.50;73.50;;;;;;5095093;28;20447;-82
2022/09/14 12:08:40;;;;;;;1.10;1.00;;;26.50;73.40;;;;;;5094738;28;20464;-81
2022/09/14 12:11:35;;;;;;;2.53;1.03;;;26.50;73.20;;;;;;5089166;28;20483;-81
2022/09/14 12:14:32;;;;;;;2.50;0.80;;;26.50;73.10;;;;;;5037013;28;20501;-83
2022/09/14 12:17:17;;;;;;;1.30;0.93;;;26.50;73.20;;;;;;5096643;28;20443;-84
2022/09/14 12:19:46;;;;;;;1.87;0.97;;;26.50;73.40;;;;;;5107890;28;20973;-81
2022/09/14 12:22:27;;;;;;;1.27;1.00;;;26.50;76.80;;;;;;5116823;28;20435;-82
2022/09/14 12:25:16;;;;;;;3.90;1.33;;;26.50;79.80;;;;;;5119931;28;20488;-92
2022/09/14 12:27:46;;;;;;;2.03;1.10;;;26.50;82.40;;;;;;5118450;28;20946;-90
2022/09/14 12:30:52;;;;;;;2.07;1.10;;;26.50;81.90;;;;;;5078529;28;20545;-92
2022/09/14 12:33:44;;;;;;;8.53;1.30;;;26.50;79.00;;;;;;5079906;28;20500;-87
2022/09/14 12:36:32;;;;;;;2.13;1.30;;;26.40;78.00;;;;;;5077098;28;20992;-89
2022/09/14 12:39:18;;;;;;;2.70;1.07;;;26.40;77.60;;;;;;5076862;28;20441;-83
2022/09/14 12:42:05;;;;;;;2.13;1.00;;;26.40;77.30;;;;;;5074549;28;20528;-84
2022/09/14 12:44:35;;;;;;;2.50;1.10;;;26.40;77.30;;;;;;5074497;28;20439;-84
2022/09/14 12:47:40;;;;;;;1.93;1.47;;;26.40;77.10;;;;;;5074063;28;20444;-83
2022/09/14 12:50:19;;;;;;;1.97;1.10;;;26.40;76.60;;;;;;5075446;28;20479;-84
2022/09/14 12:53:07;;;;;;;1.00;0.90;;;26.40;76.40;;;;;;5114934;28;20495;-85
2022/09/14 12:55:57;;;;;;;1.20;1.03;;;26.40;76.20;;;;;;5110631;28;20539;-83
2022/09/14 12:58:49;;;;;;;1.57;1.20;;;26.40;76.10;;;;;;5105027;28;20440;-84
2022/09/14 13:01:34;;;;;;;2.40;1.20;;;26.40;75.90;;;;;;5094176;28;20452;-87
2022/09/14 13:04:03;;;;;;;4.60;1.00;;;26.40;76.70;;;;;;5094462;28;20447;-83
2022/09/14 13:06:35;;;;;;;1.00;0.90;;;26.40;75.70;;;;;;5094000;28;20466;-84
2022/09/14 13:09:03;;;;;;;1.40;1.17;;;26.40;75.90;;;;;;5092009;28;20447;-82
2022/09/14 13:11:33;;;;;;;1.10;0.87;;;26.50;75.80;;;;;;5098172;28;21001;-82
2022/09/14 13:14:02;;;;;;;1.33;0.90;;;26.50;75.70;;;;;;5114241;28;20454;-83
2022/09/14 13:16:39;;;;;;;1.10;1.00;;;26.50;75.60;;;;;;5113989;28;20443;-84
2022/09/14 13:19:18;;;;;;;1.43;1.33;;;26.60;75.70;;;;;;5113880;28;20478;-82
2022/09/14 13:21:47;;;;;;;1.43;1.13;;;26.50;75.30;;;;;;5114203;28;20450;-83
2022/09/14 13:24:31;;;;;;;1.43;1.00;;;26.50;75.30;;;;;;5113978;28;20491;-83
2022/09/14 13:27:00;;;;;;;1.40;0.90;;;26.60;75.20;;;;;;5114008;28;20921;-85
2022/09/14 13:29:30;;;;;;;2.27;1.10;;;26.50;75.10;;;;;;5113970;28;20447;-85
2022/09/14 13:31:59;;;;;;;1.20;1.00;;;26.60;75.10;;;;;;5114085;28;20527;-83
2022/09/14 13:34:29;;;;;;;2.17;1.40;;;26.60;74.90;;;;;;5114020;28;20781;-83
2022/09/14 13:36:57;;;;;;;1.70;0.97;;;26.60;74.80;;;;;;5113899;28;20986;-82
2022/09/14 13:39:28;;;;;;;2.03;0.93;;;26.60;74.80;;;;;;5113806;28;20485;-83
2022/09/14 13:41:57;;;;;;;0.80;0.70;;;26.60;74.70;;;;;;5113936;28;20479;-83
2022/09/14 13:44:29;;;;;;;1.20;1.10;;;26.60;74.70;;;;;;5114018;28;20448;-83